Time;durP1;ratioP1;P1;durP2;ratioP2;P2;SDS_P1;SDS_P2;PMS_P1;PMS_P2;Temp;Humidity;BMP_temperature;BMP_pressure;BME280_temperature;BME280_humidity;BME280_pressure;Samples;Min_cycle;Max_cycle;Signal;HPM_P1;HPM_P2
2023/03/17 00:00:09;;;;;;;12.57;8.68;;;;;;;6.03;80.40;100919.91;4970217;28;20031;-81
2023/03/17 00:02:35;;;;;;;11.82;6.82;;;;;;;6.06;80.13;100893.03;4970520;28;20031;-81
2023/03/17 00:05:02;;;;;;;10.73;6.72;;;;;;;6.05;79.99;100896.66;4970496;28;20027;-82
2023/03/17 00:07:27;;;;;;;11.15;6.78;;;;;;;6.10;80.41;100899.91;4970542;28;20027;-81
2023/03/17 00:09:53;;;;;;;10.23;6.50;;;;;;;6.06;80.14;100890.34;4967830;28;20553;-81
2023/03/17 00:12:18;;;;;;;10.57;6.78;;;;;;;6.11;79.71;100903.44;4978381;28;20023;-81
2023/03/17 00:14:45;;;;;;;10.10;7.15;;;;;;;6.07;79.66;100889.41;4982003;28;20039;-81
2023/03/17 00:17:13;;;;;;;10.07;6.80;;;;;;;6.04;80.04;100878.91;4979084;28;20090;-81
2023/03/17 00:19:40;;;;;;;10.60;7.03;;;;;;;6.12;79.70;100898.00;4972075;28;20029;-82
2023/03/17 00:22:15;;;;;;;13.15;7.18;;;;;;;6.11;79.56;100898.97;4970788;28;20050;-83
2023/03/17 00:24:41;;;;;;;9.00;6.53;;;;;;;6.10;79.79;100907.91;4971057;28;20046;-82
2023/03/17 00:27:13;;;;;;;8.60;5.55;;;;;;;6.06;79.99;100905.50;4971078;28;20046;-81
2023/03/17 00:29:39;;;;;;;8.23;6.03;;;;;;;6.10;80.33;100891.91;4971067;28;20118;-81
2023/03/17 00:32:09;;;;;;;9.93;7.05;;;;;;;6.10;80.02;100891.91;4970563;28;20425;-81
2023/03/17 00:34:35;;;;;;;8.35;5.88;;;;;;;6.03;79.87;100879.84;4971077;28;20167;-81
2023/03/17 00:37:00;;;;;;;9.13;6.55;;;;;;;6.15;79.80;100886.28;4970917;28;20549;-81
2023/03/17 00:39:26;;;;;;;9.27;6.13;;;;;;;6.15;79.78;100902.28;4970855;28;20145;-81
2023/03/17 00:41:52;;;;;;;9.07;6.55;;;;;;;6.23;79.42;100900.06;4970762;28;20430;-81
2023/03/17 00:44:17;;;;;;;8.80;6.55;;;;;;;6.15;79.14;100879.13;4970662;28;20132;-80
2023/03/17 00:46:43;;;;;;;10.95;6.25;;;;;;;6.18;79.31;100894.97;4970470;28;20035;-82
2023/03/17 00:49:22;;;;;;;7.78;5.60;;;;;;;6.16;79.01;100899.56;4970659;28;20027;-82
2023/03/17 00:51:51;;;;;;;11.10;6.50;;;;;;;6.10;78.58;100896.38;4970826;28;20154;-81
2023/03/17 00:54:19;;;;;;;9.13;6.10;;;;;;;6.12;78.09;100892.66;4973416;28;20153;-82
2023/03/17 00:56:46;;;;;;;9.35;6.10;;;;;;;6.11;78.39;100901.66;4972822;28;20031;-81
2023/03/17 00:59:40;;;;;;;8.75;5.63;;;;;;;6.14;78.82;100896.13;4972727;28;20035;-79
2023/03/17 01:02:05;;;;;;;7.72;5.45;;;;;;;6.15;78.67;100905.84;4951214;29;20058;-81
2023/03/17 01:04:32;;;;;;;8.77;5.35;;;;;;;6.19;77.78;100904.72;4951317;29;20046;-80
2023/03/17 01:06:58;;;;;;;7.78;5.80;;;;;;;6.14;77.66;100917.47;4950898;29;20494;-81
2023/03/17 01:09:26;;;;;;;7.90;4.85;;;;;;;6.15;77.60;100929.88;4950769;29;20063;-81
2023/03/17 01:11:52;;;;;;;7.93;4.97;;;;;;;6.13;77.64;100915.75;4959552;29;20035;-80
2023/03/17 01:14:17;;;;;;;5.95;3.95;;;;;;;6.11;77.49;100923.00;4965296;29;20118;-80
2023/03/17 01:16:43;;;;;;;8.68;4.57;;;;;;;6.10;77.30;100905.25;4959786;29;20499;-82
2023/03/17 01:19:11;;;;;;;6.35;4.57;;;;;;;6.13;77.38;100926.44;4950517;29;20050;-81
2023/03/17 01:21:37;;;;;;;6.03;4.07;;;;;;;6.10;77.19;100926.63;4950729;29;20046;-81
2023/03/17 01:24:03;;;;;;;9.82;4.32;;;;;;;6.05;77.00;100903.81;4950609;29;20036;-81
2023/03/17 01:26:29;;;;;;;10.65;4.18;;;;;;;6.17;76.97;100914.63;4950497;29;20106;-81
2023/03/17 01:28:54;;;;;;;7.80;5.47;;;;;;;6.15;76.70;100923.66;4950696;29;20089;-81
2023/03/17 01:31:20;;;;;;;7.13;4.68;;;;;;;6.19;76.66;100931.41;4950118;28;20091;-81
2023/03/17 01:33:46;;;;;;;7.65;3.97;;;;;;;6.12;75.98;100935.38;4950661;29;20035;-81
2023/03/17 01:36:11;;;;;;;8.52;4.88;;;;;;;6.13;76.00;100929.09;4950493;29;20023;-81
2023/03/17 01:38:37;;;;;;;5.75;4.55;;;;;;;6.07;75.96;100920.59;4959007;28;20039;-80
2023/03/17 01:41:02;;;;;;;6.97;4.20;;;;;;;6.17;75.50;100938.66;4972332;28;20398;-81
2023/03/17 01:43:29;;;;;;;6.22;4.03;;;;;;;6.15;75.03;100935.22;4972215;28;20053;-80
2023/03/17 01:46:16;;;;;;;21.27;8.15;;;;;;;6.18;75.15;100936.84;4972451;28;20054;-82
2023/03/17 01:48:44;;;;;;;10.00;4.90;;;;;;;6.06;75.58;100927.72;4972647;28;20097;-82
2023/03/17 01:51:15;;;;;;;6.90;3.60;;;;;;;6.13;74.95;100957.63;4972090;28;20483;-81
2023/03/17 01:53:42;;;;;;;6.65;3.97;;;;;;;6.15;74.83;100955.69;4972550;28;20030;-81
2023/03/17 01:56:08;;;;;;;13.55;4.47;;;;;;;6.17;75.27;100952.03;4972733;28;20034;-82
2023/03/17 01:58:34;;;;;;;6.82;4.75;;;;;;;6.18;74.99;100959.06;4972647;28;20027;-81
2023/03/17 02:01:00;;;;;;;10.48;4.88;;;;;;;6.17;75.19;100957.38;4972844;28;20047;-81
2023/03/17 02:03:27;;;;;;;6.03;3.80;;;;;;;6.15;75.23;100966.38;4971507;28;20034;-82
2023/03/17 02:05:53;;;;;;;9.68;5.25;;;;;;;6.13;75.56;100974.50;4972785;28;20043;-79
2023/03/17 02:08:19;;;;;;;7.30;4.65;;;;;;;6.03;75.60;100949.25;4972639;28;20149;-82
2023/03/17 02:10:48;;;;;;;12.70;4.60;;;;;;;6.05;75.58;100952.72;4978057;28;20031;-82
2023/03/17 02:13:14;;;;;;;6.93;4.78;;;;;;;6.07;75.86;100980.19;4982291;28;20023;-79
2023/03/17 02:15:41;;;;;;;10.18;5.40;;;;;;;6.07;76.21;100980.19;4981345;28;20114;-80
2023/03/17 02:18:08;;;;;;;9.25;5.18;;;;;;;6.06;75.69;100966.91;4976118;28;20114;-79
2023/03/17 02:20:34;;;;;;;8.15;4.75;;;;;;;6.00;76.09;100963.66;4974747;28;20063;-80
2023/03/17 02:23:00;;;;;;;8.52;4.70;;;;;;;6.03;76.00;100950.13;4972015;28;20030;-80
2023/03/17 02:25:28;;;;;;;6.28;4.68;;;;;;;6.05;75.85;100966.09;4972121;28;20019;-81
2023/03/17 02:28:15;;;;;;;6.03;4.40;;;;;;;5.98;76.23;100962.03;4971932;28;20443;-80
2023/03/17 02:30:42;;;;;;;12.82;5.07;;;;;;;6.05;76.09;100975.91;4971768;28;20045;-80
2023/03/17 02:33:11;;;;;;;9.20;4.28;;;;;;;6.06;75.96;100967.78;4971522;28;20033;-80
2023/03/17 02:35:37;;;;;;;8.38;5.03;;;;;;;6.11;75.38;100981.75;4971748;28;20084;-82
2023/03/17 02:38:03;;;;;;;7.72;4.82;;;;;;;6.04;76.03;100977.69;4971551;28;20511;-81
2023/03/17 02:40:29;;;;;;;8.82;5.65;;;;;;;5.99;76.08;100987.78;4971363;28;20076;-81
2023/03/17 02:42:55;;;;;;;8.75;5.43;;;;;;;6.05;76.12;100981.22;4970752;28;20026;-81
2023/03/17 02:45:21;;;;;;;20.02;6.18;;;;;;;6.05;75.98;100981.22;4970929;28;21034;-81
2023/03/17 02:47:48;;;;;;;8.85;4.55;;;;;;;6.07;75.82;100974.84;4971231;28;20031;-81
2023/03/17 02:50:21;;;;;;;8.82;4.93;;;;;;;6.09;76.16;100994.31;4971649;28;20027;-81
2023/03/17 02:52:46;;;;;;;11.25;5.35;;;;;;;6.02;75.46;100968.94;4971396;28;20049;-82
2023/03/17 02:55:13;;;;;;;6.70;4.30;;;;;;;6.05;75.59;100971.41;4971354;28;20031;-80
2023/03/17 02:57:38;;;;;;;9.35;4.80;;;;;;;5.89;75.11;100955.41;4971337;28;20494;-80
2023/03/17 03:00:04;;;;;;;9.43;4.93;;;;;;;5.99;74.99;100974.44;4968652;28;20110;-81
2023/03/17 03:02:30;;;;;;;9.10;4.35;;;;;;;6.00;75.08;100978.81;4970958;28;20041;-80
2023/03/17 03:04:56;;;;;;;11.77;5.30;;;;;;;5.93;74.96;100974.78;4970966;28;20034;-81
2023/03/17 03:07:21;;;;;;;9.30;4.57;;;;;;;5.99;75.10;100993.13;4971140;28;20101;-80
2023/03/17 03:09:47;;;;;;;7.65;5.07;;;;;;;5.90;74.84;100966.97;4972597;28;20054;-81
2023/03/17 03:12:12;;;;;;;10.32;4.45;;;;;;;5.86;74.84;100976.06;4985220;28;20030;-80
2023/03/17 03:14:38;;;;;;;14.75;4.97;;;;;;;5.95;74.78;100980.88;4984278;28;20097;-80
2023/03/17 03:17:04;;;;;;;7.43;4.40;;;;;;;5.97;73.98;100969.16;4972168;28;20115;-81
2023/03/17 03:19:29;;;;;;;6.65;4.40;;;;;;;6.03;73.60;100989.31;4970979;28;20023;-80
2023/03/17 03:21:55;;;;;;;13.07;5.13;;;;;;;6.01;73.95;100993.88;4968372;28;20038;-80
2023/03/17 03:24:20;;;;;;;13.27;4.72;;;;;;;5.94;73.87;100995.19;4970675;28;20031;-79
2023/03/17 03:26:46;;;;;;;10.88;4.25;;;;;;;5.94;73.85;101001.38;4970553;28;20430;-80
2023/03/17 03:29:11;;;;;;;8.98;5.05;;;;;;;5.95;73.75;101000.44;4970352;28;20027;-80
2023/03/17 03:31:37;;;;;;;10.88;5.00;;;;;;;5.95;73.53;101012.94;4985732;28;20035;-80
2023/03/17 03:34:03;;;;;;;7.45;4.07;;;;;;;5.89;73.35;100998.13;4970432;28;20185;-80
2023/03/17 03:36:28;;;;;;;6.47;4.45;;;;;;;5.89;73.43;101014.13;4970765;28;20041;-80
2023/03/17 03:38:54;;;;;;;8.82;4.60;;;;;;;5.84;73.27;101016.16;4970765;28;20482;-81
2023/03/17 03:41:20;;;;;;;12.18;5.00;;;;;;;5.84;73.39;101013.47;4970816;28;20027;-80
2023/03/17 03:43:45;;;;;;;7.75;4.05;;;;;;;5.91;73.11;101022.03;4970569;28;20137;-82
2023/03/17 03:46:12;;;;;;;6.65;4.00;;;;;;;5.97;72.72;101011.03;4970754;28;20023;-79
2023/03/17 03:48:37;;;;;;;14.73;4.25;;;;;;;5.92;72.33;101029.13;4969268;28;20034;-79
2023/03/17 03:51:03;;;;;;;12.32;4.50;;;;;;;5.92;72.43;101029.97;4970802;28;20410;-80
2023/03/17 03:53:29;;;;;;;11.50;5.35;;;;;;;5.93;72.77;101036.19;4972136;28;20093;-82
2023/03/17 03:55:55;;;;;;;3.92;3.35;;;;;;;5.96;72.60;101025.34;4974745;28;20033;-80
2023/03/17 03:58:21;;;;;;;9.73;4.90;;;;;;;5.85;72.69;101019.69;4974566;28;21229;-81
2023/03/17 04:00:47;;;;;;;10.80;4.40;;;;;;;5.83;72.61;101030.47;4973011;28;20125;-80
2023/03/17 04:03:13;;;;;;;6.63;3.95;;;;;;;5.83;72.74;101034.94;4974768;28;20067;-80
2023/03/17 04:05:39;;;;;;;6.85;4.30;;;;;;;5.87;72.22;101039.19;4974335;28;20033;-80
2023/03/17 04:08:05;;;;;;;9.10;5.20;;;;;;;5.84;72.78;101036.66;4974664;28;20419;-82
2023/03/17 04:10:31;;;;;;;16.95;5.85;;;;;;;5.80;72.89;101056.44;4979245;28;20518;-78
2023/03/17 04:12:57;;;;;;;12.70;3.92;;;;;;;5.77;72.33;101049.47;4982882;28;20134;-82
2023/03/17 04:15:23;;;;;;;7.05;3.85;;;;;;;5.79;72.67;101050.25;4982113;28;20066;-81
2023/03/17 04:17:48;;;;;;;8.48;4.80;;;;;;;5.78;72.74;101053.00;4973756;28;20037;-82
2023/03/17 04:20:15;;;;;;;7.88;4.75;;;;;;;5.81;72.69;101047.50;4972867;28;20038;-81
2023/03/17 04:22:41;;;;;;;7.10;4.45;;;;;;;5.73;72.50;101039.03;4974309;28;20105;-80
2023/03/17 04:25:07;;;;;;;16.40;4.50;;;;;;;5.91;71.78;101059.41;4973812;28;20114;-80
2023/03/17 04:27:33;;;;;;;8.85;4.82;;;;;;;5.88;71.52;101055.13;4973739;28;20089;-80
2023/03/17 04:30:00;;;;;;;5.18;3.65;;;;;;;5.95;71.39;101060.97;4974580;28;20038;-81
2023/03/17 04:32:26;;;;;;;6.55;3.72;;;;;;;5.91;71.24;101075.44;4974220;28;20034;-81
2023/03/17 04:34:51;;;;;;;8.50;4.53;;;;;;;5.86;71.65;101062.34;4974463;28;20085;-84
2023/03/17 04:37:16;;;;;;;7.03;4.75;;;;;;;5.87;71.92;101084.56;4974836;28;20414;-81
2023/03/17 04:39:42;;;;;;;10.93;4.72;;;;;;;5.87;71.28;101084.56;4974331;28;20058;-82
2023/03/17 04:42:07;;;;;;;8.07;4.25;;;;;;;5.81;71.43;101079.53;4974356;28;20022;-81
2023/03/17 04:44:33;;;;;;;7.53;4.18;;;;;;;5.78;71.43;101080.53;4973999;28;20023;-81
2023/03/17 04:46:59;;;;;;;6.00;3.63;;;;;;;5.78;71.61;101072.53;4974840;28;20119;-81
2023/03/17 04:49:25;;;;;;;9.65;4.95;;;;;;;5.79;71.48;101092.09;4974102;28;20026;-81
2023/03/17 04:51:51;;;;;;;6.63;3.70;;;;;;;5.82;71.46;101099.91;4974842;28;20023;-81
2023/03/17 04:54:16;;;;;;;8.40;3.85;;;;;;;5.88;71.47;101102.28;4973864;28;20486;-79
2023/03/17 04:56:42;;;;;;;9.60;4.95;;;;;;;5.83;71.06;101109.66;4973854;28;20054;-83
2023/03/17 04:59:07;;;;;;;9.35;4.35;;;;;;;5.86;70.92;101101.53;4972991;28;20030;-82
2023/03/17 05:01:33;;;;;;;9.07;3.75;;;;;;;5.89;71.19;101101.34;4973624;28;20026;-83
2023/03/17 05:03:59;;;;;;;5.32;3.63;;;;;;;5.98;70.65;101103.53;4964291;28;20027;-81
2023/03/17 05:06:25;;;;;;;10.85;4.03;;;;;;;6.05;70.76;101110.25;4963851;28;20023;-80
2023/03/17 05:08:51;;;;;;;7.32;3.70;;;;;;;5.99;70.40;101111.44;4962880;28;20113;-81
2023/03/17 05:11:17;;;;;;;7.45;3.92;;;;;;;6.05;69.80;101104.91;4965745;28;20384;-81
2023/03/17 05:13:43;;;;;;;7.43;4.40;;;;;;;6.02;69.73;101107.75;4966630;28;20463;-81
2023/03/17 05:16:09;;;;;;;8.93;4.07;;;;;;;6.03;69.60;101107.66;4958275;28;20098;-82
2023/03/17 05:18:35;;;;;;;7.00;3.25;;;;;;;6.08;69.38;101101.22;4953699;28;20410;-82
2023/03/17 05:21:01;;;;;;;9.35;3.80;;;;;;;6.08;69.32;101110.09;4954068;28;20035;-83
2023/03/17 05:23:26;;;;;;;23.08;5.75;;;;;;;6.17;69.33;101114.91;4953242;28;20042;-80
2023/03/17 05:25:52;;;;;;;6.80;4.03;;;;;;;6.24;68.68;101121.63;4951184;28;20035;-79
2023/03/17 05:28:20;;;;;;;11.63;4.25;;;;;;;6.17;68.90;101114.91;4953057;28;20102;-82
2023/03/17 05:30:46;;;;;;;9.68;4.13;;;;;;;6.19;69.02;101123.69;4954500;28;20070;-81
2023/03/17 05:33:13;;;;;;;11.00;4.40;;;;;;;6.30;68.57;101134.63;4964452;28;20018;-80
2023/03/17 05:35:39;;;;;;;11.98;4.65;;;;;;;6.28;68.99;101128.53;4967141;28;20034;-80
2023/03/17 05:38:05;;;;;;;7.68;4.05;;;;;;;6.27;68.49;101131.31;4962946;28;20095;-78
2023/03/17 05:40:31;;;;;;;6.68;4.10;;;;;;;6.30;68.50;101126.63;4962436;28;20035;-80
2023/03/17 05:42:57;;;;;;;15.43;4.65;;;;;;;6.40;68.47;101146.53;4942417;28;20526;-78
2023/03/17 05:45:22;;;;;;;5.75;3.95;;;;;;;6.44;67.90;101140.09;4969329;28;20574;-78
2023/03/17 05:47:48;;;;;;;8.57;4.20;;;;;;;6.40;66.99;101138.53;4972792;28;20026;-78
2023/03/17 05:50:13;;;;;;;6.75;3.90;;;;;;;6.41;66.77;101160.78;4963330;28;20030;-80
2023/03/17 05:52:39;;;;;;;9.30;3.90;;;;;;;6.49;66.54;101154.03;4973155;28;20026;-80
2023/03/17 05:55:06;;;;;;;12.85;4.90;;;;;;;6.51;66.52;101151.31;4973044;28;20442;-80
2023/03/17 05:57:32;;;;;;;7.10;3.85;;;;;;;6.50;66.59;101154.91;4973883;28;20066;-82
2023/03/17 05:59:58;;;;;;;14.57;4.03;;;;;;;6.46;66.09;101169.38;4973178;28;20049;-82
2023/03/17 06:02:24;;;;;;;12.75;3.90;;;;;;;6.44;66.01;101140.09;4973421;28;20718;-82
2023/03/17 06:04:49;;;;;;;8.18;4.43;;;;;;;6.54;65.85;101162.66;4973841;28;20463;-82
2023/03/17 06:07:16;;;;;;;11.10;4.50;;;;;;;6.67;66.23;101169.97;4973007;28;20035;-79
2023/03/17 06:09:42;;;;;;;6.18;3.70;;;;;;;6.78;66.29;101172.91;4974360;28;20043;-81
2023/03/17 06:12:08;;;;;;;14.60;4.10;;;;;;;6.80;65.68;101157.66;4978975;28;20039;-80
2023/03/17 06:14:33;;;;;;;10.27;3.92;;;;;;;7.01;65.39;101161.75;4975595;28;20038;-80
2023/03/17 06:16:59;;;;;;;10.88;4.70;;;;;;;7.09;64.53;101186.25;4971274;28;20022;-81
2023/03/17 06:19:24;;;;;;;6.75;3.78;;;;;;;7.26;63.90;101191.47;4972879;28;20414;-81
2023/03/17 06:21:50;;;;;;;18.13;5.47;;;;;;;7.24;63.39;101185.38;4972669;28;20402;-82
2023/03/17 06:24:16;;;;;;;15.20;4.72;;;;;;;7.30;63.44;101201.06;4973866;28;20038;-81
2023/03/17 06:26:42;;;;;;;13.43;4.78;;;;;;;7.34;63.39;101207.09;4974288;28;20022;-81
2023/03/17 06:29:08;;;;;;;8.98;4.00;;;;;;;7.40;62.78;101202.22;4986668;28;20050;-81
2023/03/17 06:31:37;;;;;;;12.20;4.57;;;;;;;7.37;62.47;101206.91;4993701;28;20035;-80
2023/03/17 06:34:03;;;;;;;6.35;3.90;;;;;;;7.45;62.21;101210.84;4991453;28;20038;-79
2023/03/17 06:36:30;;;;;;;8.75;4.07;;;;;;;7.46;61.81;101207.22;4980105;28;20023;-81
2023/03/17 06:38:57;;;;;;;12.15;3.90;;;;;;;7.58;62.13;101225.22;4972627;28;20518;-80
2023/03/17 06:41:22;;;;;;;10.02;4.22;;;;;;;7.54;61.10;101226.38;4972957;28;20026;-82
2023/03/17 06:43:48;;;;;;;10.00;4.50;;;;;;;7.60;61.58;101231.34;4971841;28;20114;-82
2023/03/17 06:46:14;;;;;;;8.13;4.00;;;;;;;7.65;61.20;101226.59;4969414;28;20039;-83
2023/03/17 06:48:39;;;;;;;7.70;3.58;;;;;;;7.78;61.41;101236.56;4971524;28;20522;-81
2023/03/17 06:51:05;;;;;;;13.68;4.47;;;;;;;7.76;60.57;101230.44;4971328;28;20111;-81
2023/03/17 06:53:31;;;;;;;9.75;3.88;;;;;;;7.90;60.82;101243.84;4971434;28;20040;-82
2023/03/17 06:55:56;;;;;;;13.70;5.18;;;;;;;7.90;60.14;101230.44;4971556;28;20466;-83
2023/03/17 06:58:22;;;;;;;16.17;4.72;;;;;;;7.90;60.60;101219.75;4971377;28;20491;-82
2023/03/17 07:00:48;;;;;;;9.60;4.35;;;;;;;8.12;59.51;101229.06;4971477;28;20090;-82
2023/03/17 07:03:14;;;;;;;9.77;4.25;;;;;;;8.18;58.72;101214.41;4971511;28;20031;-82
2023/03/17 07:05:40;;;;;;;14.65;3.90;;;;;;;8.21;59.23;101222.25;4971042;28;20097;-80
2023/03/17 07:08:06;;;;;;;9.45;3.60;;;;;;;8.09;58.21;101231.06;4980395;28;20058;-81
2023/03/17 07:10:32;;;;;;;15.13;4.38;;;;;;;8.21;57.81;101243.69;4985235;28;20030;-81
2023/03/17 07:12:58;;;;;;;5.63;3.63;;;;;;;8.13;58.17;101232.59;4977113;28;20166;-82
2023/03/17 07:15:23;;;;;;;8.63;3.63;;;;;;;8.25;58.00;101234.53;4971072;28;20099;-81
2023/03/17 07:17:49;;;;;;;8.52;3.42;;;;;;;8.33;57.97;101231.38;4973548;28;20033;-82
2023/03/17 07:20:15;;;;;;;9.52;4.18;;;;;;;8.47;57.83;101240.28;4970825;28;20092;-82
2023/03/17 07:22:41;;;;;;;10.23;2.88;;;;;;;8.48;56.43;101233.97;4970603;28;20041;-82
2023/03/17 07:25:07;;;;;;;9.75;2.95;;;;;;;8.52;55.51;101224.78;4970976;28;20027;-82
2023/03/17 07:27:33;;;;;;;8.68;3.38;;;;;;;8.49;56.12;101235.69;4952022;28;20039;-81
2023/03/17 07:30:01;;;;;;;12.07;4.22;;;;;;;8.40;56.69;101241.66;4971098;28;20032;-82
2023/03/17 07:32:26;;;;;;;13.50;4.35;;;;;;;8.33;55.75;101224.22;4970514;28;20039;-82
2023/03/17 07:34:53;;;;;;;9.98;3.08;;;;;;;8.34;55.80;101223.25;4970467;28;20086;-81
2023/03/17 07:37:20;;;;;;;17.98;4.10;;;;;;;8.39;55.93;101229.19;4952530;28;20043;-81
2023/03/17 07:39:47;;;;;;;10.48;4.28;;;;;;;8.38;56.41;101238.19;4970634;28;20031;-81
2023/03/17 07:42:14;;;;;;;6.75;3.22;;;;;;;8.32;55.76;101219.81;4970446;28;20125;-81
2023/03/17 07:44:40;;;;;;;13.35;3.65;;;;;;;8.41;55.50;101226.44;4973016;28;20023;-82
2023/03/17 07:47:06;;;;;;;9.25;2.85;;;;;;;8.47;55.39;101232.25;4977521;28;20034;-82
2023/03/17 07:49:32;;;;;;;24.80;3.83;;;;;;;8.50;55.55;101218.63;4975069;28;20042;-81
2023/03/17 07:51:57;;;;;;;6.88;3.50;;;;;;;8.57;55.29;101219.97;4971620;28;20125;-81
2023/03/17 07:54:24;;;;;;;16.77;5.22;;;;;;;8.47;55.47;101218.84;4972490;28;20031;-82
2023/03/17 07:56:50;;;;;;;7.15;2.67;;;;;;;8.66;54.89;101227.44;4971477;28;20228;-82
2023/03/17 07:59:15;;;;;;;17.70;3.20;;;;;;;8.83;54.53;101230.88;4970717;28;20106;-82
2023/03/17 08:01:41;;;;;;;5.63;3.20;;;;;;;8.98;54.40;101235.25;4970890;28;20038;-82
2023/03/17 08:04:07;;;;;;;33.63;5.28;;;;;;;8.87;54.00;101224.34;4970707;28;20836;-82
2023/03/17 08:06:32;;;;;;;15.63;4.60;;;;;;;8.83;53.28;101230.88;4983183;28;20034;-81
2023/03/17 08:08:58;;;;;;;7.68;4.28;;;;;;;8.73;53.99;101219.88;4983353;28;20092;-81
2023/03/17 08:11:23;;;;;;;13.68;3.85;;;;;;;8.85;53.34;101236.97;4973341;28;20351;-84
2023/03/17 08:13:48;;;;;;;21.38;5.13;;;;;;;8.93;53.63;101232.84;4970732;28;20031;-81
2023/03/17 08:16:14;;;;;;;14.18;4.25;;;;;;;9.00;53.83;101244.03;4970258;28;20042;-82
2023/03/17 08:18:40;;;;;;;7.00;3.75;;;;;;;9.20;53.63;101254.34;4970095;28;20523;-80
2023/03/17 08:21:06;;;;;;;9.05;3.45;;;;;;;9.20;52.49;101235.56;4970533;28;20054;-81
2023/03/17 08:23:32;;;;;;;12.43;2.72;;;;;;;9.22;52.44;101271.19;4970559;28;20086;-81
2023/03/17 08:26:01;;;;;;;9.38;3.50;;;;;;;9.12;52.32;101241.41;4970073;28;20030;-82
2023/03/17 08:28:27;;;;;;;8.13;3.78;;;;;;;9.32;52.25;101245.50;4969769;28;20570;-83
2023/03/17 08:30:53;;;;;;;24.98;5.93;;;;;;;9.41;52.09;101270.84;4970092;28;20122;-81
2023/03/17 08:33:19;;;;;;;7.53;2.97;;;;;;;9.38;51.10;101250.44;4969670;28;20113;-82
2023/03/17 08:35:45;;;;;;;9.80;3.00;;;;;;;9.35;51.94;101255.16;4969855;28;20116;-83
2023/03/17 08:38:11;;;;;;;9.07;3.55;;;;;;;9.36;51.94;101257.72;4969920;28;20058;-81
2023/03/17 08:40:38;;;;;;;27.80;3.58;;;;;;;9.49;52.17;101260.44;4972258;28;20538;-81
2023/03/17 08:43:05;;;;;;;15.02;3.05;;;;;;;9.52;51.42;101247.69;4973911;28;20576;-83
2023/03/17 08:45:31;;;;;;;20.23;3.17;;;;;;;9.68;52.00;101263.63;4973727;28;20512;-83
2023/03/17 08:47:56;;;;;;;8.13;2.85;;;;;;;9.73;51.42;101288.34;4973323;28;20031;-82
2023/03/17 08:50:23;;;;;;;12.98;2.60;;;;;;;9.70;50.59;101262.56;4973872;28;20464;-81
2023/03/17 08:52:50;;;;;;;6.70;3.00;;;;;;;9.82;50.61;101250.97;4973433;28;20114;-81
2023/03/17 08:55:16;;;;;;;8.25;3.15;;;;;;;9.61;50.30;101252.44;4973370;28;20030;-82
2023/03/17 08:57:43;;;;;;;6.35;2.97;;;;;;;9.69;51.24;101243.88;4975761;28;20117;-81
2023/03/17 09:00:11;;;;;;;12.13;2.72;;;;;;;9.82;50.68;101242.91;4976807;28;20034;-81
2023/03/17 09:02:38;;;;;;;12.00;3.22;;;;;;;9.94;50.41;101224.25;4978347;28;20027;-81
2023/03/17 09:05:05;;;;;;;3.83;2.20;;;;;;;10.13;49.71;101246.19;4986152;28;20086;-80
2023/03/17 09:07:31;;;;;;;10.57;2.92;;;;;;;10.21;49.01;101241.19;4985836;28;20083;-80
2023/03/17 09:09:58;;;;;;;6.25;2.72;;;;;;;10.28;49.32;101242.44;4985783;28;20110;-83
2023/03/17 09:12:23;;;;;;;6.05;2.30;;;;;;;9.97;49.54;101242.84;4974622;28;20019;-83
2023/03/17 09:14:49;;;;;;;16.67;3.00;;;;;;;10.08;49.58;101240.28;4975884;28;20035;-83
2023/03/17 09:17:15;;;;;;;20.40;4.00;;;;;;;10.22;50.16;101243.75;4977872;28;20030;-83
2023/03/17 09:19:40;;;;;;;49.47;5.30;;;;;;;10.33;49.66;101248.38;4973964;28;20553;-85
2023/03/17 09:22:07;;;;;;;33.15;3.65;;;;;;;10.14;49.61;101239.88;4973830;28;20035;-83
2023/03/17 09:24:32;;;;;;;7.88;2.85;;;;;;;10.13;49.86;101249.75;4973444;28;20422;-82
2023/03/17 09:27:00;;;;;;;12.77;3.42;;;;;;;10.26;49.70;101245.25;4974093;28;20034;-81
2023/03/17 09:29:26;;;;;;;5.28;2.70;;;;;;;10.29;49.75;101245.03;4973308;28;20027;-81
2023/03/17 09:31:53;;;;;;;7.68;2.70;;;;;;;10.33;48.89;101243.00;4974088;28;20034;-81
2023/03/17 09:34:18;;;;;;;15.95;4.40;;;;;;;10.47;49.82;101236.63;4974761;28;20034;-83
2023/03/17 09:36:44;;;;;;;24.73;3.30;;;;;;;10.43;49.12;101249.44;4973733;28;20022;-82
2023/03/17 09:39:10;;;;;;;12.93;2.92;;;;;;;10.38;49.17;101248.91;4974091;28;20038;-82
2023/03/17 09:41:55;;;;;;;17.20;2.97;;;;;;;10.37;49.99;101233.72;4974489;28;20023;-83
2023/03/17 09:44:27;;;;;;;9.52;3.00;;;;;;;10.45;48.71;101230.50;4974369;28;20498;-81
2023/03/17 09:46:53;;;;;;;4.40;2.80;;;;;;;10.40;48.49;101230.00;4955347;28;20042;-82
2023/03/17 09:49:24;;;;;;;12.93;3.17;;;;;;;10.20;48.75;101217.94;4973435;28;20034;-82
2023/03/17 09:51:50;;;;;;;7.20;2.47;;;;;;;10.20;49.88;101223.31;4972629;28;20134;-80
2023/03/17 09:54:16;;;;;;;15.82;3.47;;;;;;;10.28;50.18;101218.25;4972576;28;20121;-83
2023/03/17 09:56:47;;;;;;;15.25;3.70;;;;;;;10.25;50.01;101195.13;4972700;28;20530;-83
2023/03/17 09:59:42;;;;;;;28.23;5.05;;;;;;;10.45;49.82;101215.25;4972415;28;20050;-84
2023/03/17 10:02:16;;;;;;;16.33;2.88;;;;;;;10.39;49.20;101207.63;4974552;28;20042;-83
2023/03/17 10:04:43;;;;;;;40.58;4.10;;;;;;;10.52;50.26;101221.88;4988649;28;20030;-82
2023/03/17 10:07:15;;;;;;;33.72;5.40;;;;;;;10.66;50.27;101229.84;4984585;28;20031;-83
2023/03/17 10:09:57;;;;;;;7.95;2.40;;;;;;;10.67;49.83;101218.09;4971789;28;20082;-82
2023/03/17 10:12:41;;;;;;;7.28;2.05;;;;;;;10.85;49.54;101224.84;4973498;28;20032;-81
2023/03/17 10:15:55;;;;;;;16.70;2.90;;;;;;;10.99;50.03;101218.44;4972215;28;20066;-83
2023/03/17 10:18:26;;;;;;;14.43;3.08;;;;;;;11.03;49.21;101219.06;4931393;29;20064;-82
2023/03/17 10:20:56;;;;;;;13.82;2.72;;;;;;;11.12;48.88;101221.09;4931489;29;20071;-82
2023/03/17 10:23:28;;;;;;;14.48;3.08;;;;;;;11.25;49.05;101225.41;4931318;29;20040;-83
2023/03/17 10:25:58;;;;;;;29.48;4.70;;;;;;;11.52;48.40;101222.50;4884587;29;20044;-83
2023/03/17 10:28:28;;;;;;;26.98;3.70;;;;;;;11.79;48.01;101217.75;4931743;29;20059;-83
2023/03/17 10:31:00;;;;;;;9.98;3.70;;;;;;;11.89;47.45;101224.16;4915237;29;20635;-83
2023/03/17 10:33:26;;;;;;;16.70;4.63;;;;;;;12.11;47.03;101219.78;4931558;29;20103;-82
2023/03/17 10:35:51;;;;;;;6.95;3.95;;;;;;;12.10;46.75;101218.06;4931541;29;20060;-84
2023/03/17 10:38:20;;;;;;;10.73;3.47;;;;;;;12.05;46.65;101212.16;4931372;29;20047;-83
2023/03/17 10:40:55;;;;;;;15.23;4.15;;;;;;;12.24;46.86;101215.13;4930654;29;20049;-82
2023/03/17 10:43:21;;;;;;;23.20;5.45;;;;;;;12.19;46.71;101217.31;4931625;29;20034;-82
2023/03/17 10:46:01;;;;;;;29.95;4.30;;;;;;;12.26;46.35;101218.56;4931095;29;20086;-83
2023/03/17 10:48:29;;;;;;;9.23;3.97;;;;;;;12.08;45.86;101223.53;4932484;29;20047;-83
2023/03/17 10:50:57;;;;;;;6.43;3.88;;;;;;;11.97;46.26;101213.63;4935785;29;20098;-82
2023/03/17 10:53:28;;;;;;;27.08;7.25;;;;;;;12.02;46.30;101215.09;4944496;29;20035;-80
2023/03/17 10:56:06;;;;;;;20.65;7.43;;;;;;;11.95;46.61;101220.97;4991410;28;20054;-81
2023/03/17 10:58:37;;;;;;;7.93;3.05;;;;;;;11.94;46.22;101194.13;4988725;28;20037;-82
2023/03/17 11:01:20;;;;;;;18.02;3.50;;;;;;;11.92;47.33;101215.81;4979530;28;20030;-83
2023/03/17 11:03:46;;;;;;;;;;;;;;;11.92;46.49;101210.44;4986990;28;20027;-81
2023/03/17 11:06:18;;;;;;;8.80;3.88;;;;;;;11.87;46.50;101218.00;4981157;28;20269;-82
2023/03/17 11:08:54;;;;;;;23.00;4.00;;;;;;;11.89;46.77;101213.38;4971060;28;20054;-86
2023/03/17 11:11:40;;;;;;;18.40;4.50;;;;;;;11.81;47.00;101229.25;4971133;28;20035;-81
2023/03/17 11:14:17;;;;;;;17.15;3.67;;;;;;;11.71;47.82;101225.53;4968625;28;20074;-82
2023/03/17 11:16:52;;;;;;;12.35;3.33;;;;;;;11.68;48.39;101225.72;4970977;28;20038;-83
2023/03/17 11:19:21;;;;;;;15.85;3.03;;;;;;;11.60;46.99;101222.78;4972081;28;20030;-84
2023/03/17 11:21:58;;;;;;;13.77;3.85;;;;;;;11.59;47.07;101222.91;4976345;28;20041;-85
2023/03/17 11:24:32;;;;;;;35.58;6.57;;;;;;;11.51;47.35;101219.91;4975354;28;20026;-81
2023/03/17 11:27:00;;;;;;;10.10;3.90;;;;;;;11.45;47.54;101213.16;4971781;28;20420;-81
2023/03/17 11:29:54;;;;;;;13.63;4.97;;;;;;;11.40;47.24;101234.22;4971617;28;20027;-83